createdAt,value
2022-07-30T00:03:34.230Z,19.49
2022-07-30T00:07:31.408Z,19.43
2022-07-30T00:11:28.421Z,19.32
2022-07-30T00:15:25.674Z,19.33
2022-07-30T00:19:22.697Z,19.26
2022-07-30T00:23:20.431Z,19.04
2022-07-30T00:27:17.394Z,19.03
2022-07-30T00:31:14.416Z,18.99
2022-07-30T00:35:11.862Z,19.08
2022-07-30T00:39:09.592Z,18.83
2022-07-30T00:43:06.726Z,18.90
2022-07-30T00:47:04.086Z,18.87
2022-07-30T00:51:01.535Z,18.95
2022-07-30T00:55:01.179Z,18.71
2022-07-30T00:58:58.178Z,18.67
2022-07-30T01:02:55.226Z,18.64
2022-07-30T01:06:57.738Z,18.61
2022-07-30T01:10:55.014Z,18.64
2022-07-30T01:14:56.917Z,18.56
2022-07-30T01:19:17.105Z,18.48
2022-07-30T01:23:43.385Z,18.47
2022-07-30T01:27:54.880Z,18.37
2022-07-30T01:31:59.686Z,18.63
2022-07-30T01:35:59.886Z,18.70
2022-07-30T01:39:57.107Z,18.56
2022-07-30T01:43:55.170Z,18.67
2022-07-30T01:47:55.835Z,18.42
2022-07-30T01:51:54.932Z,18.49
2022-07-30T01:55:54.587Z,18.39
2022-07-30T02:00:01.954Z,18.29
2022-07-30T02:04:04.583Z,18.41
2022-07-30T02:08:10.241Z,18.10
2022-07-30T02:12:31.579Z,18.18
2022-07-30T02:16:40.536Z,18.12
2022-07-30T02:20:39.261Z,18.02
2022-07-30T02:24:40.454Z,18.18
2022-07-30T02:28:42.476Z,18.17
2022-07-30T02:32:43.871Z,18.19
2022-07-30T02:36:45.081Z,18.28
2022-07-30T02:40:45.144Z,18.36
2022-07-30T02:44:45.919Z,18.19
2022-07-30T02:48:46.936Z,18.12
2022-07-30T02:52:49.371Z,17.93
2022-07-30T02:56:50.869Z,17.92
2022-07-30T03:00:52.413Z,17.56
2022-07-30T03:04:52.733Z,17.68
2022-07-30T03:08:51.950Z,17.85
2022-07-30T03:12:51.484Z,18.00
2022-07-30T03:16:57.319Z,18.08
2022-07-30T03:20:59.036Z,18.07
2022-07-30T03:24:59.343Z,18.12
2022-07-30T03:28:57.993Z,18.00
2022-07-30T03:32:56.626Z,18.18
2022-07-30T03:36:55.601Z,18.05
2022-07-30T03:40:53.478Z,18.08
2022-07-30T03:44:51.385Z,18.04
2022-07-30T03:48:49.035Z,18.20
2022-07-30T03:52:46.566Z,18.24
2022-07-30T03:56:46.925Z,18.33
2022-07-30T04:01:13.740Z,18.41
2022-07-30T04:05:16.158Z,18.12
2022-07-30T04:09:14.458Z,18.26
2022-07-30T04:13:11.774Z,18.42
2022-07-30T04:17:42.116Z,18.43
2022-07-30T04:21:42.592Z,18.35
2022-07-30T04:25:43.728Z,18.36
2022-07-30T04:29:41.601Z,18.34
2022-07-30T04:33:38.846Z,18.43
2022-07-30T04:37:45.278Z,18.46
2022-07-30T04:41:48.967Z,18.60
2022-07-30T04:46:01.287Z,18.83
2022-07-30T04:49:59.980Z,18.80
2022-07-30T04:53:59.544Z,18.89
2022-07-30T04:57:58.863Z,19.11
2022-07-30T05:02:00.697Z,19.06
2022-07-30T05:06:00.407Z,19.03
2022-07-30T05:10:01.110Z,19.23
2022-07-30T05:13:58.128Z,19.12
2022-07-30T05:17:55.290Z,19.19
2022-07-30T05:21:52.710Z,19.37
2022-07-30T05:25:49.774Z,19.34
2022-07-30T05:29:57.990Z,19.39
2022-07-30T05:33:54.976Z,19.42
2022-07-30T05:37:55.965Z,19.48
2022-07-30T05:41:55.083Z,19.60
2022-07-30T05:46:12.897Z,19.97
2022-07-30T05:50:10.124Z,20.05
2022-07-30T05:54:08.148Z,20.13
2022-07-30T05:58:30.963Z,20.05
2022-07-30T06:02:28.012Z,20.14
2022-07-30T06:06:43.382Z,20.01
2022-07-30T06:10:41.051Z,20.01
2022-07-30T06:14:41.113Z,19.84
2022-07-30T06:18:41.065Z,19.87
2022-07-30T06:22:46.560Z,19.91
2022-07-30T06:26:51.088Z,20.08
2022-07-30T06:30:50.017Z,20.02
2022-07-30T06:34:53.386Z,20.19
2022-07-30T06:38:56.876Z,20.17
2022-07-30T06:43:06.380Z,20.38
2022-07-30T06:47:29.080Z,20.33
2022-07-30T06:51:27.379Z,20.50
2022-07-30T06:55:25.645Z,20.71
2022-07-30T06:59:28.210Z,21.07
2022-07-30T07:03:40.124Z,21.26
2022-07-30T07:07:43.253Z,21.24
2022-07-30T07:11:47.894Z,20.91
2022-07-30T07:15:48.324Z,20.86
2022-07-30T07:20:00.316Z,20.77
2022-07-30T07:24:02.858Z,20.88
2022-07-30T07:28:22.341Z,21.28
2022-07-30T07:32:30.645Z,22.10
2022-07-30T07:36:28.561Z,22.35
2022-07-30T07:40:25.719Z,22.96
2022-07-30T07:44:22.975Z,22.92
2022-07-30T07:48:20.061Z,22.91
2022-07-30T07:52:34.632Z,23.11
2022-07-30T07:56:31.684Z,23.45
2022-07-30T08:00:29.765Z,24.02
2022-07-30T08:04:26.929Z,24.76
2022-07-30T08:08:42.187Z,24.51
2022-07-30T08:13:04.067Z,25.23
2022-07-30T08:17:20.075Z,26.76
2022-07-30T08:21:37.074Z,26.66
2022-07-30T08:25:34.867Z,25.44
2022-07-30T08:29:32.062Z,25.73
2022-07-30T08:33:29.116Z,26.45
2022-07-30T08:37:26.429Z,26.43
2022-07-30T08:41:25.787Z,25.85
2022-07-30T08:45:35.055Z,25.43
2022-07-30T08:50:05.327Z,26.44
2022-07-30T08:54:06.299Z,27.35
2022-07-30T08:58:11.795Z,26.18
2022-07-30T09:02:12.630Z,25.71
2022-07-30T09:06:23.964Z,26.10
2022-07-30T09:10:24.808Z,25.98
2022-07-30T09:14:21.830Z,27.02
2022-07-30T09:18:39.430Z,26.25
2022-07-30T09:22:53.374Z,26.13
2022-07-30T09:27:03.623Z,27.04
2022-07-30T09:31:27.861Z,27.75
2022-07-30T09:35:43.863Z,26.99
2022-07-30T09:39:42.970Z,26.01
2022-07-30T09:44:25.516Z,25.64
2022-07-30T09:48:28.103Z,25.99
2022-07-30T09:52:31.636Z,26.65
2022-07-30T09:56:30.373Z,27.32
2022-07-30T10:00:31.813Z,27.76
2022-07-30T10:04:40.344Z,26.76
2022-07-30T10:08:51.753Z,26.86
2022-07-30T10:12:54.308Z,27.43
2022-07-30T10:16:52.488Z,28.09
2022-07-30T10:20:49.673Z,28.81
2022-07-30T10:24:59.411Z,28.47
2022-07-30T10:29:20.859Z,28.04
2022-07-30T10:33:36.395Z,27.49
2022-07-30T10:37:42.023Z,27.64
2022-07-30T10:42:14.924Z,27.48
2022-07-30T10:46:45.830Z,28.09
2022-07-30T10:50:58.493Z,27.87
2022-07-30T10:54:58.527Z,27.49
2022-07-30T10:59:26.000Z,26.98
2022-07-30T11:03:40.249Z,27.05
2022-07-30T11:07:38.751Z,27.39
2022-07-30T11:12:05.473Z,28.34
2022-07-30T11:15:59.880Z,30.28
2022-07-30T11:20:02.941Z,30.07
2022-07-30T11:24:00.928Z,29.75
2022-07-30T11:28:00.692Z,29.60
2022-07-30T11:32:32.059Z,28.84
2022-07-30T11:36:29.524Z,28.61
2022-07-30T11:40:29.510Z,28.35
2022-07-30T11:44:29.533Z,28.43
2022-07-30T11:48:26.630Z,28.68
2022-07-30T11:52:24.154Z,27.50
2022-07-30T11:56:21.098Z,27.15
2022-07-30T12:00:18.447Z,26.41
2022-07-30T12:04:15.545Z,26.05
2022-07-30T12:08:31.589Z,26.16
2022-07-30T12:12:31.378Z,26.75
2022-07-30T12:16:30.992Z,26.41
2022-07-30T12:20:29.108Z,26.10
2022-07-30T12:24:27.030Z,26.47
2022-07-30T12:28:36.732Z,26.75
2022-07-30T12:32:34.368Z,27.28
2022-07-30T12:36:35.082Z,28.53
2022-07-30T12:40:32.172Z,29.99
2022-07-30T12:44:39.847Z,30.29
2022-07-30T12:48:37.064Z,30.62
2022-07-30T12:52:37.771Z,30.93
2022-07-30T12:56:37.079Z,31.85
2022-07-30T13:00:54.894Z,30.99
2022-07-30T13:05:10.170Z,30.13
2022-07-30T13:09:21.207Z,29.61
2022-07-30T13:13:18.144Z,28.82
2022-07-30T13:17:15.177Z,27.82
2022-07-30T13:21:12.964Z,27.62
2022-07-30T13:25:10.610Z,27.78
2022-07-30T13:29:10.307Z,28.38
2022-07-30T13:33:07.743Z,28.07
2022-07-30T13:37:05.098Z,27.47
2022-07-30T13:41:03.825Z,27.24
2022-07-30T13:45:01.197Z,27.92
2022-07-30T13:48:58.468Z,28.88
2022-07-30T13:53:00.090Z,29.07
2022-07-30T13:56:59.510Z,27.88
2022-07-30T14:00:56.684Z,26.79
2022-07-30T14:04:56.229Z,26.63
2022-07-30T14:08:53.232Z,26.91
2022-07-30T14:12:56.740Z,27.84
2022-07-30T14:16:58.135Z,27.59
2022-07-30T14:20:55.172Z,28.01
2022-07-30T14:24:52.202Z,28.67
2022-07-30T14:28:49.300Z,28.86
2022-07-30T14:32:46.378Z,28.29
2022-07-30T14:36:43.904Z,27.24
2022-07-30T14:40:41.107Z,26.95
2022-07-30T14:44:38.288Z,26.06
2022-07-30T14:48:35.453Z,25.96
2022-07-30T14:52:35.165Z,26.03
2022-07-30T14:56:32.122Z,25.69
2022-07-30T15:00:34.578Z,25.12
2022-07-30T15:04:47.068Z,25.00
2022-07-30T15:08:46.098Z,24.54
2022-07-30T15:12:43.287Z,24.57
2022-07-30T15:16:41.466Z,24.31
2022-07-30T15:20:38.495Z,24.00
2022-07-30T15:24:35.536Z,23.87
2022-07-30T15:28:32.832Z,23.94
2022-07-30T15:32:29.813Z,24.10
2022-07-30T15:36:26.847Z,24.78
2022-07-30T15:40:24.392Z,26.91
2022-07-30T15:44:21.399Z,29.11
2022-07-30T15:48:25.015Z,29.93
2022-07-30T15:52:24.476Z,29.76
2022-07-30T15:56:21.547Z,29.48
2022-07-30T16:00:18.595Z,27.90
2022-07-30T16:04:19.626Z,26.86
2022-07-30T16:08:17.222Z,26.27
2022-07-30T16:12:14.348Z,25.74
2022-07-30T16:16:11.332Z,25.41
2022-07-30T16:20:10.254Z,25.22
2022-07-30T16:24:07.827Z,25.39
2022-07-30T16:28:04.922Z,25.07
2022-07-30T16:32:02.115Z,24.83
2022-07-30T16:35:59.287Z,24.64
2022-07-30T16:39:56.371Z,24.36
2022-07-30T16:43:53.457Z,24.07
2022-07-30T16:47:50.438Z,23.86
2022-07-30T16:51:47.460Z,23.83
2022-07-30T16:55:45.470Z,23.79
2022-07-30T16:59:43.672Z,23.70
2022-07-30T17:03:40.969Z,23.62
2022-07-30T17:07:38.021Z,23.55
2022-07-30T17:12:19.061Z,23.80
2022-07-30T17:16:22.410Z,23.95
2022-07-30T17:20:19.573Z,23.93
2022-07-30T17:24:16.940Z,23.91
2022-07-30T17:28:13.971Z,23.79
2022-07-30T17:32:12.166Z,23.56
2022-07-30T17:36:09.256Z,23.32
2022-07-30T17:40:29.439Z,23.39
2022-07-30T17:44:24.639Z,23.10
2022-07-30T17:48:21.841Z,23.18
2022-07-30T17:52:23.326Z,22.88
2022-07-30T17:56:27.153Z,22.82
2022-07-30T18:00:24.490Z,22.89
2022-07-30T18:04:21.609Z,22.91
2022-07-30T18:08:18.636Z,22.68
2022-07-30T18:12:15.674Z,22.58
2022-07-30T18:16:12.874Z,22.48
2022-07-30T18:20:10.534Z,22.45
2022-07-30T18:24:07.707Z,22.34
2022-07-30T18:28:05.868Z,22.11
2022-07-30T18:32:03.101Z,22.06
2022-07-30T18:36:00.379Z,22.17
2022-07-30T18:39:57.350Z,22.11
2022-07-30T18:43:54.415Z,22.08
2022-07-30T18:47:51.933Z,22.14
2022-07-30T18:51:48.921Z,22.03
2022-07-30T18:55:47.097Z,21.87
2022-07-30T18:59:44.104Z,21.98
2022-07-30T19:03:41.217Z,21.71
2022-07-30T19:07:55.626Z,21.93
2022-07-30T19:11:55.352Z,21.94
2022-07-30T19:15:52.474Z,21.90
2022-07-30T19:19:49.577Z,21.76
2022-07-30T19:23:46.569Z,21.81
2022-07-30T19:27:43.567Z,21.80
2022-07-30T19:31:43.189Z,21.73
2022-07-30T19:35:40.504Z,21.67
2022-07-30T19:39:37.678Z,21.64
2022-07-30T19:43:55.766Z,21.61
2022-07-30T19:47:55.254Z,21.64
2022-07-30T19:52:11.249Z,21.56
2022-07-30T19:56:11.299Z,21.38
2022-07-30T20:00:10.142Z,21.32
2022-07-30T20:04:11.353Z,21.40
2022-07-30T20:08:11.391Z,21.50
2022-07-30T20:12:08.772Z,21.19
2022-07-30T20:16:11.932Z,20.98
2022-07-30T20:20:10.114Z,20.80
2022-07-30T20:24:07.546Z,20.71
2022-07-30T20:28:06.086Z,20.62
2022-07-30T20:32:03.656Z,20.46
2022-07-30T20:36:01.887Z,20.24
2022-07-30T20:39:58.907Z,19.81
2022-07-30T20:43:55.989Z,19.91
2022-07-30T20:52:14.460Z,19.93
2022-07-30T20:56:11.460Z,20.07
2022-07-30T21:00:12.868Z,20.08
2022-07-30T21:04:09.966Z,19.82
2022-07-30T21:08:25.074Z,19.91
2022-07-30T21:12:32.467Z,19.98
2022-07-30T21:16:30.923Z,19.89
2022-07-30T21:20:29.041Z,19.76
2022-07-30T21:24:26.024Z,19.85
2022-07-30T21:28:27.777Z,19.95
2022-07-30T21:32:26.727Z,19.91
2022-07-30T21:36:24.881Z,20.00
2022-07-30T21:40:24.690Z,19.97
2022-07-30T21:44:21.887Z,20.01
2022-07-30T21:48:20.878Z,19.88
2022-07-30T21:52:18.711Z,19.90
2022-07-30T21:56:16.344Z,19.54
2022-07-30T22:00:22.450Z,19.52
2022-07-30T22:04:20.973Z,19.44
2022-07-30T22:08:18.332Z,19.46
2022-07-30T22:12:19.298Z,19.22
2022-07-30T22:16:16.389Z,19.20
2022-07-30T22:20:16.104Z,19.25
2022-07-30T22:24:28.838Z,19.27
2022-07-30T22:28:27.143Z,19.23
2022-07-30T22:32:25.691Z,19.32
2022-07-30T22:36:25.256Z,19.32
2022-07-30T22:40:24.635Z,19.25
2022-07-30T22:44:21.936Z,19.15
2022-07-30T22:48:20.734Z,19.06
2022-07-30T22:52:25.234Z,19.04
2022-07-30T22:56:24.100Z,18.88
2022-07-30T23:00:27.982Z,18.86
2022-07-30T23:04:25.597Z,18.75
2022-07-30T23:08:30.030Z,18.82
2022-07-30T23:12:18.531Z,20.04
2022-07-30T23:12:35.259Z,18.72
2022-07-30T23:16:32.765Z,18.69
2022-07-30T23:20:29.805Z,18.36
2022-07-30T23:24:26.963Z,18.33
2022-07-30T23:28:24.624Z,18.23
2022-07-30T23:32:21.720Z,17.94
2022-07-30T23:36:18.784Z,17.87
2022-07-30T23:40:18.871Z,18.06
2022-07-30T23:44:16.045Z,17.89
2022-07-30T23:48:13.143Z,17.80
2022-07-30T23:52:10.241Z,17.68
2022-07-30T23:56:13.509Z,17.58
